Time;durP1;ratioP1;P1;durP2;ratioP2;P2;SDS_P1;SDS_P2;PMS_P1;PMS_P2;Temp;Humidity;BMP_temperature;BMP_pressure;BME280_temperature;BME280_humidity;BME280_pressure;Samples;Min_cycle;Max_cycle;Signal;HPM_P1;HPM_P2
2022/06/25 00:01:17;;;;;;;19.30;7.80;;;;;;;18.76;42.75;98710.49;105895;1276;111150;-70
2022/06/25 00:03:46;;;;;;;19.80;7.20;;;;;;;18.69;42.98;98709.35;106040;1276;95381;-68
2022/06/25 00:06:15;;;;;;;20.50;8.40;;;;;;;18.61;43.09;98706.81;106004;1276;106983;-67
2022/06/25 00:08:46;;;;;;;18.90;8.00;;;;;;;18.54;43.14;98703.09;106031;1278;97955;-68
2022/06/25 00:14:12;;;;;;;20.40;8.00;;;;;;;18.35;43.56;98702.82;106015;1276;111981;-67
2022/06/25 00:16:40;;;;;;;21.50;7.90;;;;;;;18.26;43.67;98702.90;105982;1275;97872;-68
2022/06/25 00:19:08;;;;;;;22.00;8.40;;;;;;;18.18;43.58;98701.89;105966;1276;107780;-66
2022/06/25 00:21:37;;;;;;;17.70;7.90;;;;;;;18.09;43.76;98707.30;105991;1276;97957;-67
2022/06/25 00:24:05;;;;;;;19.60;8.30;;;;;;;18.01;43.90;98703.35;106010;1276;97884;-67
2022/06/25 00:26:33;;;;;;;19.10;8.20;;;;;;;17.93;43.98;98707.80;105986;1276;114094;-68
2022/06/25 00:29:01;;;;;;;22.40;8.70;;;;;;;17.86;43.90;98705.45;105982;1276;97769;-68
2022/06/25 00:31:29;;;;;;;19.10;8.20;;;;;;;17.79;43.98;98703.56;105880;1276;108395;-69
2022/06/25 00:33:57;;;;;;;20.60;9.10;;;;;;;17.73;44.23;98699.85;105990;1276;97994;-65
2022/06/25 00:36:25;;;;;;;19.30;8.00;;;;;;;17.67;44.30;98704.29;105934;1276;97987;-67
2022/06/25 00:38:52;;;;;;;20.10;8.30;;;;;;;17.61;44.43;98703.14;105984;1276;112014;-67
2022/06/25 00:41:21;;;;;;;18.00;8.00;;;;;;;17.56;44.57;98698.79;106018;1276;95209;-68
2022/06/25 00:43:49;;;;;;;18.40;8.10;;;;;;;17.51;44.55;98698.08;105941;1277;109827;-68
2022/06/25 00:46:17;;;;;;;23.10;8.90;;;;;;;17.46;44.54;98699.96;106009;1276;96416;-67
2022/06/25 00:48:45;;;;;;;19.10;8.40;;;;;;;17.41;44.67;98699.54;105883;1276;98031;-69
2022/06/25 00:51:14;;;;;;;21.50;8.20;;;;;;;17.35;44.92;98695.90;105977;1276;111949;-69
2022/06/25 00:53:45;;;;;;;20.00;8.40;;;;;;;17.29;44.99;98697.56;105970;1276;97904;-68
2022/06/25 00:56:14;;;;;;;18.90;8.30;;;;;;;17.24;45.24;98695.23;105992;1276;107709;-68
2022/06/25 00:58:44;;;;;;;20.30;8.70;;;;;;;17.19;45.23;98697.88;105952;1276;97994;-68
2022/06/25 01:01:14;;;;;;;18.30;8.20;;;;;;;17.15;45.33;98696.23;105908;1276;97976;-68
2022/06/25 01:03:42;;;;;;;18.20;8.20;;;;;;;17.08;45.48;98693.15;105975;1276;111403;-67
2022/06/25 01:06:10;;;;;;;20.20;8.20;;;;;;;17.02;45.58;98694.91;106016;1276;97628;-66
2022/06/25 01:08:38;;;;;;;20.60;9.00;;;;;;;16.97;45.73;98693.97;106045;1276;108255;-67
2022/06/25 01:11:07;;;;;;;21.20;8.60;;;;;;;16.91;45.86;98694.85;105989;1279;98062;-67
2022/06/25 01:13:36;;;;;;;22.90;8.30;;;;;;;16.87;45.75;98699.95;106055;1278;97961;-68
2022/06/25 01:16:05;;;;;;;19.70;8.90;;;;;;;16.83;45.88;98705.02;105990;1278;111751;-66
2022/06/25 01:18:33;;;;;;;19.30;8.30;;;;;;;16.79;46.06;98708.50;106063;1278;97873;-68
2022/06/25 01:21:01;;;;;;;19.30;8.70;;;;;;;16.74;46.15;98710.27;105828;1278;108397;-68
2022/06/25 01:23:30;;;;;;;18.50;8.00;;;;;;;16.70;46.25;98707.08;105832;1278;98001;-66
2022/06/25 01:25:59;;;;;;;18.30;8.00;;;;;;;16.66;46.43;98710.56;105879;1278;97846;-67
2022/06/25 01:28:27;;;;;;;20.20;9.30;;;;;;;16.60;46.34;98708.98;105849;1279;111491;-67
2022/06/25 01:30:55;;;;;;;18.60;7.90;;;;;;;16.56;46.44;98703.69;105844;1278;97617;-68
2022/06/25 01:33:23;;;;;;;20.90;8.60;;;;;;;16.52;46.53;98702.89;105832;1278;108286;-67
2022/06/25 01:35:51;;;;;;;19.80;8.40;;;;;;;16.47;46.66;98700.89;105830;1278;97901;-68
2022/06/25 01:38:23;;;;;;;22.10;8.80;;;;;;;16.42;46.81;98694.78;105865;1278;97840;-68
2022/06/25 01:40:51;;;;;;;18.90;8.70;;;;;;;16.37;46.90;98696.39;105833;1277;112035;-67
2022/06/25 01:43:19;;;;;;;21.20;8.30;;;;;;;16.32;47.09;98691.63;106035;1276;97915;-67
2022/06/25 01:45:48;;;;;;;21.70;9.30;;;;;;;16.29;46.98;98689.66;105991;1276;107735;-67
2022/06/25 01:48:16;;;;;;;20.90;9.00;;;;;;;16.24;47.19;98695.31;105977;1276;98005;-68
2022/06/25 01:50:44;;;;;;;22.70;9.30;;;;;;;16.19;47.26;98697.25;106006;1276;97884;-68
2022/06/25 01:53:12;;;;;;;21.10;9.30;;;;;;;16.15;47.32;98699.13;105966;1277;112098;-68
2022/06/25 01:55:40;;;;;;;19.30;8.10;;;;;;;16.10;47.51;98700.34;106028;1278;97848;-68
2022/06/25 01:58:09;;;;;;;18.60;8.50;;;;;;;16.07;47.60;98702.41;106026;1276;107799;-68
2022/06/25 02:00:37;;;;;;;18.00;8.40;;;;;;;16.05;47.67;98705.87;105968;1278;97970;-67
2022/06/25 02:03:07;;;;;;;19.00;8.30;;;;;;;16.02;47.82;98709.58;105959;1276;97858;-66
2022/06/25 02:08:50;;;;;;;17.90;8.00;;;;;;;15.93;48.09;98711.64;105954;1276;97963;-67
2022/06/25 02:11:18;;;;;;;19.30;9.20;;;;;;;15.87;48.14;98712.29;106077;1279;108303;-67
2022/06/25 02:13:48;;;;;;;21.50;9.30;;;;;;;15.82;48.13;98709.77;106008;1276;97990;-67
2022/06/25 02:16:16;;;;;;;20.50;8.90;;;;;;;15.79;48.23;98718.06;106040;1276;97870;-67
2022/06/25 02:18:50;;;;;;;21.40;8.90;;;;;;;15.76;48.35;98715.25;106041;1276;111924;-66
2022/06/25 02:21:19;;;;;;;20.70;9.00;;;;;;;15.72;48.45;98710.12;105895;1276;97890;-68
2022/06/25 02:23:47;;;;;;;19.50;8.70;;;;;;;15.69;48.47;98703.55;105942;1276;106108;-68
2022/06/25 02:26:15;;;;;;;16.20;7.90;;;;;;;15.66;48.60;98708.82;105861;1276;97982;-68
2022/06/25 02:28:43;;;;;;;19.80;8.30;;;;;;;15.62;48.64;98707.72;105967;1276;97894;-67
2022/06/25 02:31:12;;;;;;;23.10;8.20;;;;;;;15.58;48.52;98705.46;105971;1276;111377;-68
2022/06/25 02:33:41;;;;;;;17.80;7.90;;;;;;;15.54;48.65;98708.23;106039;1277;95380;-67
2022/06/25 02:36:10;;;;;;;19.30;8.00;;;;;;;15.52;48.89;98712.20;105911;1277;108755;-67
2022/06/25 02:38:38;;;;;;;17.80;7.70;;;;;;;15.50;48.93;98710.20;105961;1276;98724;-67
2022/06/25 02:41:06;;;;;;;19.40;8.20;;;;;;;15.48;49.01;98709.83;105870;1276;97882;-68
2022/06/25 02:43:35;;;;;;;18.30;8.00;;;;;;;15.46;49.08;98712.80;105859;1276;112049;-67
2022/06/25 02:46:03;;;;;;;19.00;7.90;;;;;;;15.42;49.25;98711.85;106032;1276;97961;-67
2022/06/25 02:48:31;;;;;;;22.00;9.10;;;;;;;15.39;49.26;98711.11;105907;1276;106739;-68
2022/06/25 02:50:59;;;;;;;16.60;7.50;;;;;;;15.34;49.28;98709.41;105964;1276;97873;-68
2022/06/25 02:53:27;;;;;;;17.50;7.60;;;;;;;15.31;49.44;98710.23;105948;1276;97887;-70
2022/06/25 02:58:54;;;;;;;21.20;8.00;;;;;;;15.27;49.69;98711.19;105894;1276;97891;-68
2022/06/25 03:01:26;;;;;;;17.10;7.70;;;;;;;15.24;49.75;98710.96;106002;1276;107827;-68
2022/06/25 03:03:56;;;;;;;18.30;7.80;;;;;;;15.21;49.82;98708.87;105997;1276;98013;-68
2022/06/25 03:06:26;;;;;;;18.70;7.10;;;;;;;15.20;49.90;98712.98;106078;1276;98311;-69
2022/06/25 03:08:54;;;;;;;21.10;8.60;;;;;;;15.18;50.06;98716.91;106006;1276;112066;-68
2022/06/25 03:11:24;;;;;;;20.60;8.70;;;;;;;15.17;50.10;98710.39;106011;1276;98551;-69
2022/06/25 03:13:54;;;;;;;19.50;9.20;;;;;;;15.15;50.21;98712.30;105967;1276;109135;-68
2022/06/25 03:16:23;;;;;;;20.40;9.60;;;;;;;15.14;50.25;98717.30;106016;1276;98009;-67
2022/06/25 03:18:53;;;;;;;19.20;9.50;;;;;;;15.13;50.37;98714.90;106052;1276;96890;-67
2022/06/25 03:21:23;;;;;;;24.80;9.90;;;;;;;15.12;50.47;98714.98;106055;1276;112068;-67
2022/06/25 03:23:50;;;;;;;24.40;10.20;;;;;;;15.12;50.54;98714.79;106007;1276;95217;-65
2022/06/25 03:26:18;;;;;;;20.20;10.10;;;;;;;15.12;50.58;98715.69;105974;1276;108300;-68
2022/06/25 03:28:49;;;;;;;20.70;9.40;;;;;;;15.11;50.72;98717.70;106004;1276;97860;-69
2022/06/25 03:31:17;;;;;;;22.40;10.50;;;;;;;15.11;50.80;98713.48;105994;1276;95265;-68
2022/06/25 03:33:48;;;;;;;26.90;10.20;;;;;;;15.12;50.86;98712.84;105940;1277;111933;-68
2022/06/25 03:36:16;;;;;;;21.80;10.10;;;;;;;15.13;51.00;98709.18;105846;1276;97981;-68
2022/06/25 03:38:46;;;;;;;21.20;9.00;;;;;;;15.13;51.04;98708.45;105911;1276;108353;-68
2022/06/25 03:41:35;;;;;;;20.00;9.60;;;;;;;15.16;51.10;98711.92;105972;1276;97875;-66
2022/06/25 03:44:09;;;;;;;21.00;10.10;;;;;;;15.18;51.30;98713.46;105969;1277;97945;-66
2022/06/25 03:46:39;;;;;;;23.90;10.40;;;;;;;15.21;51.34;98716.98;105396;1277;805381;-68
2022/06/25 03:49:07;;;;;;;22.20;10.00;;;;;;;15.23;51.38;98716.73;105994;1276;98019;-68
2022/06/25 03:51:37;;;;;;;23.30;10.10;;;;;;;15.26;51.41;98717.40;105876;1277;109249;-68
2022/06/25 03:54:06;;;;;;;21.60;10.10;;;;;;;15.28;51.48;98718.02;105861;1277;98478;-69
2022/06/25 03:56:35;;;;;;;21.50;10.30;;;;;;;15.32;51.60;98717.66;105817;1277;97838;-67
2022/06/25 03:59:03;;;;;;;21.70;11.20;;;;;;;15.36;51.65;98716.10;105921;1276;112093;-67
2022/06/25 04:01:30;;;;;;;21.10;10.20;;;;;;;15.39;51.75;98719.52;105946;1276;97897;-67
2022/06/25 04:04:02;;;;;;;21.20;10.10;;;;;;;15.43;51.85;98720.61;105846;1276;108543;-67
2022/06/25 04:06:30;;;;;;;20.30;9.50;;;;;;;15.47;51.97;98722.85;105915;1276;97859;-67
2022/06/25 04:08:58;;;;;;;19.60;8.90;;;;;;;15.52;52.01;98720.20;105965;1276;95380;-67
2022/06/25 04:11:28;;;;;;;19.20;8.80;;;;;;;15.57;52.10;98723.15;105985;1276;111417;-67
2022/06/25 04:13:58;;;;;;;20.50;9.20;;;;;;;15.62;52.11;98723.33;105943;1276;96221;-66
2022/06/25 04:16:26;;;;;;;19.50;9.00;;;;;;;15.67;52.26;98724.63;105938;1276;108275;-67
2022/06/25 04:18:56;;;;;;;20.00;8.00;;;;;;;15.72;52.33;98723.75;105950;1277;97886;-67
2022/06/25 04:21:27;;;;;;;19.80;8.30;;;;;;;15.78;52.39;98721.58;105963;1276;97881;-68
2022/06/25 04:23:55;;;;;;;19.10;8.70;;;;;;;15.85;52.43;98722.88;105932;1277;110383;-67
2022/06/25 04:26:23;;;;;;;18.70;8.50;;;;;;;15.91;52.49;98723.13;105963;1276;98085;-69
2022/06/25 04:29:05;;;;;;;17.90;8.10;;;;;;;15.97;52.60;98725.96;105944;1277;108445;-67
2022/06/25 04:31:38;;;;;;;16.90;7.10;;;;;;;16.02;52.73;98720.44;105875;1276;97865;-69
2022/06/25 04:34:07;;;;;;;17.20;8.40;;;;;;;16.08;52.72;98723.27;105903;1276;96604;-67
2022/06/25 04:36:37;;;;;;;23.20;7.20;;;;;;;16.14;52.72;98725.71;105905;1276;111341;-67
2022/06/25 04:39:05;;;;;;;16.50;7.20;;;;;;;16.20;52.87;98731.73;105860;1277;97978;-66
2022/06/25 04:41:34;;;;;;;20.40;7.60;;;;;;;16.26;52.78;98735.84;105917;1276;108368;-66
2022/06/25 04:44:03;;;;;;;15.60;7.00;;;;;;;16.31;52.72;98734.13;105787;1277;98008;-67
2022/06/25 04:46:36;;;;;;;20.40;7.10;;;;;;;16.37;52.83;98730.85;105824;1277;97804;-66
2022/06/25 04:49:04;;;;;;;15.40;6.90;;;;;;;16.44;52.80;98734.16;105841;1277;111080;-67
2022/06/25 04:51:32;;;;;;;17.60;7.50;;;;;;;16.51;52.84;98739.49;106057;1277;96351;-67
2022/06/25 04:54:03;;;;;;;20.60;7.20;;;;;;;16.57;52.87;98739.59;105959;1276;108302;-67
2022/06/25 04:56:32;;;;;;;15.00;6.70;;;;;;;16.64;53.05;98742.13;105802;1277;97941;-67
2022/06/25 04:59:04;;;;;;;17.90;7.90;;;;;;;16.71;53.09;98744.45;105913;1277;98674;-68
2022/06/25 05:01:32;;;;;;;21.90;7.80;;;;;;;16.78;53.39;98746.02;105912;1275;111097;-68
2022/06/25 05:04:03;;;;;;;15.80;7.60;;;;;;;16.86;53.13;98744.49;105872;1277;97816;-67
2022/06/25 05:06:33;;;;;;;17.50;7.20;;;;;;;16.94;53.44;98740.27;105871;1277;108314;-66
2022/06/25 05:09:04;;;;;;;18.00;7.60;;;;;;;17.01;53.46;98739.94;105802;1277;95310;-67
2022/06/25 05:11:33;;;;;;;17.50;8.00;;;;;;;17.07;53.47;98737.16;105764;1279;96358;-66
2022/06/25 05:14:01;;;;;;;19.00;8.10;;;;;;;17.16;53.45;98738.94;105795;1278;112032;-66
2022/06/25 05:16:28;;;;;;;17.30;7.80;;;;;;;17.24;53.42;98736.39;105882;1277;96319;-66
2022/06/25 05:18:57;;;;;;;20.40;7.80;;;;;;;17.33;53.43;98736.72;105954;1277;108392;-66
2022/06/25 05:21:25;;;;;;;15.30;7.10;;;;;;;17.41;53.51;98736.06;105831;1278;96561;-67
2022/06/25 05:23:53;;;;;;;17.70;7.30;;;;;;;17.50;53.48;98737.34;105841;1277;97870;-67
2022/06/25 05:26:21;;;;;;;17.10;7.20;;;;;;;17.57;53.56;98737.05;105758;1278;111889;-68
2022/06/25 05:28:49;;;;;;;16.20;7.30;;;;;;;17.66;53.80;98736.46;105750;1277;97899;-66
2022/06/25 05:31:17;;;;;;;17.00;7.80;;;;;;;17.77;53.89;98732.30;105732;1277;107066;-66
2022/06/25 05:33:45;;;;;;;23.30;8.50;;;;;;;17.88;53.73;98730.20;105720;1278;97956;-67
2022/06/25 05:36:13;;;;;;;19.30;8.70;;;;;;;18.00;53.78;98731.27;105809;1277;97876;-65
2022/06/25 05:38:41;;;;;;;19.30;7.70;;;;;;;18.15;53.86;98732.27;105681;1277;111379;-66
2022/06/25 05:41:09;;;;;;;18.90;6.90;;;;;;;18.34;53.82;98732.16;105792;1277;96678;-67
2022/06/25 05:43:38;;;;;;;18.50;6.60;;;;;;;18.58;53.59;98732.93;105724;1278;108392;-66
2022/06/25 05:46:07;;;;;;;20.60;6.70;;;;;;;18.91;53.65;98734.61;105760;1277;99424;-68
2022/06/25 05:48:35;;;;;;;18.10;6.90;;;;;;;19.25;53.90;98731.48;105832;1277;97898;-67
2022/06/25 05:51:03;;;;;;;17.60;6.90;;;;;;;19.57;53.84;98737.69;105808;1277;111931;-65
2022/06/25 05:53:32;;;;;;;13.40;6.00;;;;;;;19.81;53.76;98735.63;105853;1277;98445;-67
2022/06/25 05:56:00;;;;;;;21.20;6.90;;;;;;;19.99;53.66;98739.51;105759;1277;108211;-67
2022/06/25 05:58:28;;;;;;;14.30;6.00;;;;;;;20.16;53.66;98736.71;105683;1278;97905;-68
2022/06/25 06:00:56;;;;;;;13.50;6.00;;;;;;;20.28;53.69;98739.92;105837;1278;97861;-67
2022/06/25 06:03:24;;;;;;;14.70;5.50;;;;;;;20.39;53.61;98740.63;105835;1277;111958;-65
2022/06/25 06:05:53;;;;;;;14.40;5.60;;;;;;;20.50;53.56;98741.85;105905;1277;98452;-67
2022/06/25 06:08:21;;;;;;;13.30;5.70;;;;;;;20.64;53.66;98740.27;105900;1276;107419;-67
2022/06/25 06:10:49;;;;;;;15.10;5.60;;;;;;;20.79;53.51;98743.04;105933;1277;97977;-68
2022/06/25 06:13:18;;;;;;;17.20;6.30;;;;;;;20.95;53.44;98740.44;105943;1277;98300;-66
2022/06/25 06:15:47;;;;;;;13.10;5.40;;;;;;;21.11;53.53;98741.94;105923;1277;112048;-68
2022/06/25 06:18:14;;;;;;;14.80;5.50;;;;;;;21.26;53.56;98739.50;105906;1277;97863;-68
2022/06/25 06:20:42;;;;;;;12.80;5.60;;;;;;;21.42;53.48;98740.66;105817;1278;108122;-67
2022/06/25 06:23:10;;;;;;;16.60;6.10;;;;;;;21.59;53.39;98743.48;105775;1277;96388;-67
2022/06/25 06:25:39;;;;;;;13.00;5.60;;;;;;;21.76;53.51;98743.72;105774;1278;97927;-67
2022/06/25 06:28:07;;;;;;;16.30;5.60;;;;;;;21.94;53.35;98746.77;105779;1277;112144;-67
2022/06/25 06:30:34;;;;;;;19.60;6.10;;;;;;;22.10;53.38;98745.30;105823;1277;97810;-66
2022/06/25 06:33:04;;;;;;;14.50;4.80;;;;;;;22.26;53.33;98741.48;105974;1277;107963;-67
2022/06/25 06:35:32;;;;;;;11.90;5.20;;;;;;;22.44;53.20;98745.92;105912;1277;97868;-71
2022/06/25 06:38:00;;;;;;;15.10;5.90;;;;;;;22.62;53.27;98743.23;105981;1277;96343;-66
2022/06/25 06:40:29;;;;;;;14.60;5.80;;;;;;;22.81;53.04;98737.31;105987;1277;111407;-68
2022/06/25 06:42:58;;;;;;;14.00;5.30;;;;;;;23.04;53.06;98735.27;105983;1277;96321;-68
2022/06/25 06:45:26;;;;;;;14.10;5.20;;;;;;;23.30;53.11;98734.86;105983;1277;107776;-71
2022/06/25 06:47:54;;;;;;;15.40;5.60;;;;;;;23.52;52.95;98737.36;106020;1277;97954;-73
2022/06/25 06:50:22;;;;;;;12.50;5.30;;;;;;;23.72;53.05;98735.49;105993;1277;97862;-75
2022/06/25 06:52:50;;;;;;;13.10;5.70;;;;;;;23.94;52.96;98736.63;105994;1277;110093;-77
2022/06/25 06:55:18;;;;;;;12.90;5.60;;;;;;;24.15;53.02;98732.46;105952;1276;98219;-68
2022/06/25 06:57:46;;;;;;;13.00;5.60;;;;;;;24.41;52.81;98729.02;105975;1277;108413;-68
2022/06/25 07:00:17;;;;;;;10.90;5.20;;;;;;;24.74;52.90;98731.83;106043;1276;97994;-67
2022/06/25 07:02:45;;;;;;;14.60;5.00;;;;;;;25.12;52.94;98735.05;106012;1277;96427;-67
2022/06/25 07:05:13;;;;;;;10.60;4.70;;;;;;;25.54;52.85;98730.50;105900;1277;112018;-68
2022/06/25 07:07:41;;;;;;;12.10;4.60;;;;;;;26.00;52.71;98735.27;105937;1276;96447;-68
2022/06/25 07:10:10;;;;;;;13.20;5.00;;;;;;;26.56;52.78;98731.23;105981;1277;109134;-71
2022/06/25 07:12:38;;;;;;;12.70;4.40;;;;;;;27.11;52.25;98730.35;105971;1276;97978;-69
2022/06/25 07:15:08;;;;;;;13.40;4.50;;;;;;;27.64;52.24;98730.36;105897;1276;98015;-72
2022/06/25 07:17:37;;;;;;;16.10;4.50;;;;;;;28.19;52.35;98728.52;105951;1276;111440;-69
2022/06/25 07:20:07;;;;;;;11.20;4.60;;;;;;;28.78;51.85;98730.61;106026;1276;98299;-69
2022/06/25 07:22:35;;;;;;;19.30;4.90;;;;;;;29.32;51.61;98726.34;105841;1276;106885;-70
2022/06/25 07:25:04;;;;;;;13.20;4.70;;;;;;;29.88;51.38;98727.48;105888;1277;97979;-70
2022/06/25 07:27:34;;;;;;;11.50;4.80;;;;;;;30.51;51.18;98726.88;105830;1276;98578;-71
2022/06/25 07:30:04;;;;;;;10.90;4.30;;;;;;;31.15;50.31;98728.45;105825;1276;111449;-71
2022/06/25 07:32:32;;;;;;;12.10;4.30;;;;;;;31.82;50.26;98722.29;105862;1276;98335;-72
2022/06/25 07:35:00;;;;;;;10.30;4.30;;;;;;;32.93;49.32;98724.02;105940;1276;106841;-72
2022/06/25 07:37:28;;;;;;;12.20;4.80;;;;;;;34.08;48.89;98726.38;107684;1276;95823;-71
2022/06/25 07:39:57;;;;;;;9.20;4.20;;;;;;;35.18;47.94;98718.77;107774;1276;97352;-73
2022/06/25 07:42:24;;;;;;;16.20;4.00;;;;;;;36.18;47.77;98718.12;106356;1276;111359;-71
2022/06/25 07:44:52;;;;;;;13.70;4.50;;;;;;;37.02;47.31;98716.52;105816;1276;98435;-70
2022/06/25 07:47:20;;;;;;;8.70;4.30;;;;;;;37.95;46.68;98716.50;105957;1276;107729;-70
2022/06/25 07:52:35;;;;;;;6.20;3.60;;;;;;;39.65;44.96;98717.55;105847;1276;97889;-73
2022/06/25 07:55:04;;;;;;;9.20;3.50;;;;;;;40.13;44.42;98719.48;105934;1276;111196;-72
2022/06/25 07:57:32;;;;;;;17.30;4.00;;;;;;;40.33;43.17;98723.13;106053;1277;97930;-76
2022/06/25 08:00:04;;;;;;;8.60;4.10;;;;;;;40.94;42.77;98722.17;106021;1276;107625;-75
2022/06/25 08:02:32;;;;;;;10.70;4.10;;;;;;;41.51;42.17;98724.72;105863;1276;95371;-75
2022/06/25 08:05:00;;;;;;;12.70;4.10;;;;;;;41.99;41.57;98725.08;105678;1276;97860;-72
2022/06/25 08:07:27;;;;;;;11.70;4.50;;;;;;;42.36;40.79;98726.73;105722;1276;111461;-69
2022/06/25 08:09:55;;;;;;;8.60;4.10;;;;;;;42.68;39.90;98725.20;105906;1276;98343;-66
2022/06/25 08:12:23;;;;;;;30.10;5.70;;;;;;;42.95;39.46;98727.88;105901;1276;107720;-72
2022/06/25 08:14:51;;;;;;;11.70;3.90;;;;;;;43.15;38.98;98724.41;105888;1276;96133;-80
2022/06/25 08:17:19;;;;;;;9.50;3.60;;;;;;;43.29;37.93;98728.27;105937;1277;95278;-78
2022/06/25 08:19:48;;;;;;;7.80;3.80;;;;;;;43.31;37.29;98731.78;105853;1276;111495;-75
2022/06/25 08:22:16;;;;;;;9.40;4.10;;;;;;;43.49;36.44;98731.28;105941;1276;97782;-73
2022/06/25 08:24:45;;;;;;;9.10;3.70;;;;;;;43.53;36.17;98733.86;105907;1276;107538;-76
2022/06/25 08:27:13;;;;;;;13.00;3.40;;;;;;;43.64;35.88;98731.39;105931;1276;95848;-78
2022/06/25 08:29:41;;;;;;;43.60;4.90;;;;;;;43.73;35.25;98736.30;106012;1276;95197;-72
2022/06/25 08:32:09;;;;;;;10.30;3.40;;;;;;;43.48;34.81;98733.02;105928;1276;111410;-69
2022/06/25 08:34:37;;;;;;;9.80;3.50;;;;;;;43.45;34.68;98733.13;105742;1276;98366;-69
2022/06/25 08:37:05;;;;;;;11.10;4.30;;;;;;;43.43;33.68;98734.35;105793;1276;108279;-69
2022/06/25 08:39:34;;;;;;;10.80;4.20;;;;;;;43.34;33.26;98730.64;105722;1276;97925;-68
2022/06/25 08:42:04;;;;;;;9.00;3.80;;;;;;;43.30;33.10;98729.45;105822;1276;96669;-69
2022/06/25 08:44:33;;;;;;;8.00;3.40;;;;;;;43.42;32.60;98726.45;105860;1276;112278;-69
2022/06/25 08:47:03;;;;;;;8.50;3.60;;;;;;;43.24;31.76;98728.88;105830;1276;98732;-68
2022/06/25 08:49:35;;;;;;;10.80;3.60;;;;;;;42.96;31.56;98731.15;105946;1276;107820;-68
2022/06/25 08:52:09;;;;;;;9.80;3.50;;;;;;;42.79;31.00;98731.98;105802;1276;97982;-69
2022/06/25 08:54:41;;;;;;;7.20;3.40;;;;;;;42.45;30.68;98733.36;106065;1276;97866;-69
2022/06/25 08:57:09;;;;;;;12.50;3.40;;;;;;;42.41;30.66;98727.81;105927;1276;111874;-69
2022/06/25 08:59:42;;;;;;;8.80;3.40;;;;;;;42.52;30.21;98726.23;105984;1276;95851;-70
2022/06/25 09:02:10;;;;;;;7.50;3.10;;;;;;;42.42;29.72;98723.78;106015;1276;108103;-68
2022/06/25 09:04:38;;;;;;;8.60;3.50;;;;;;;42.25;29.38;98728.73;105879;1276;98628;-69
2022/06/25 09:07:14;;;;;;;10.50;3.30;;;;;;;42.02;29.13;98727.21;106033;1276;97865;-70
2022/06/25 09:09:50;;;;;;;8.30;3.20;;;;;;;41.73;28.92;98730.80;105930;1276;112240;-68
2022/06/25 09:12:19;;;;;;;7.90;3.40;;;;;;;41.76;28.82;98730.14;105977;1276;97642;-68
2022/06/25 09:14:48;;;;;;;8.50;3.20;;;;;;;41.71;28.57;98731.02;105908;1276;107817;-68
2022/06/25 09:17:15;;;;;;;13.20;4.40;;;;;;;41.63;28.22;98732.00;106087;1276;97878;-68
2022/06/25 09:19:48;;;;;;;10.90;3.30;;;;;;;41.48;28.13;98725.86;105929;1276;97920;-68
2022/06/25 09:22:23;;;;;;;5.80;3.50;;;;;;;41.37;27.89;98723.36;105969;1276;112354;-67
2022/06/25 09:24:58;;;;;;;6.70;3.30;;;;;;;41.22;27.74;98722.66;105804;1278;98399;-68
2022/06/25 09:27:36;;;;;;;7.70;3.30;;;;;;;41.01;27.62;98721.20;105940;1276;108302;-69
2022/06/25 09:30:10;;;;;;;10.00;3.40;;;;;;;40.86;27.20;98718.95;105900;1276;97893;-68
2022/06/25 09:32:48;;;;;;;6.60;3.10;;;;;;;40.62;27.22;98718.48;105896;1276;97950;-67
2022/06/25 09:35:41;;;;;;;12.00;3.50;;;;;;;40.40;27.05;98720.33;105764;1276;112285;-67
2022/06/25 09:38:16;;;;;;;8.70;3.10;;;;;;;40.23;27.01;98718.17;105644;1279;97970;-67
2022/06/25 09:40:56;;;;;;;11.30;3.30;;;;;;;39.88;26.68;98717.10;107749;1276;107753;-67
2022/06/25 09:43:25;;;;;;;11.20;3.30;;;;;;;39.32;26.46;98721.17;107703;1276;95826;-66
2022/06/25 09:45:56;;;;;;;7.10;3.50;;;;;;;39.09;26.40;98716.86;107523;1276;95968;-66
2022/06/25 09:48:26;;;;;;;9.40;3.40;;;;;;;39.04;26.58;98719.44;105788;1277;111448;-67
2022/06/25 09:51:04;;;;;;;8.10;3.10;;;;;;;38.73;26.25;98724.84;105823;1276;96342;-68
2022/06/25 09:53:34;;;;;;;7.80;3.40;;;;;;;38.53;26.07;98720.83;105737;1276;107995;-67
2022/06/25 09:56:04;;;;;;;12.00;3.60;;;;;;;38.34;26.16;98714.04;105899;1276;96728;-69
2022/06/25 09:58:34;;;;;;;9.60;3.30;;;;;;;37.92;25.91;98711.44;105938;1276;97812;-68
2022/06/25 10:01:03;;;;;;;7.90;3.10;;;;;;;37.74;25.98;98717.30;105875;1276;111218;-68
2022/06/25 10:03:34;;;;;;;6.90;3.10;;;;;;;37.66;25.86;98709.21;105895;1276;96092;-67
2022/06/25 10:06:03;;;;;;;7.50;3.10;;;;;;;37.45;25.85;98709.46;105877;1276;108207;-68
2022/06/25 10:08:33;;;;;;;6.60;3.00;;;;;;;37.14;25.83;98708.65;105926;1276;96460;-67
2022/06/25 10:11:05;;;;;;;12.60;3.50;;;;;;;36.78;25.69;98708.48;105835;1276;97976;-67
2022/06/25 10:13:34;;;;;;;11.10;3.60;;;;;;;36.48;25.83;98707.67;105843;1276;111430;-67
2022/06/25 10:16:04;;;;;;;9.00;4.30;;;;;;;36.25;25.75;98709.59;105880;1276;98495;-67
2022/06/25 10:18:38;;;;;;;10.90;4.00;;;;;;;36.04;25.81;98704.80;105922;1277;108191;-67
2022/06/25 10:21:07;;;;;;;6.90;3.00;;;;;;;35.74;25.76;98703.67;105874;1276;97905;-68
2022/06/25 10:23:42;;;;;;;9.60;3.20;;;;;;;35.43;25.67;98708.70;105906;1276;97980;-68
2022/06/25 10:26:12;;;;;;;12.00;3.90;;;;;;;35.11;25.87;98704.38;105721;1276;112020;-67
2022/06/25 10:28:41;;;;;;;9.60;3.30;;;;;;;34.76;25.52;98704.41;105753;1276;96909;-66
2022/06/25 10:31:19;;;;;;;8.20;3.60;;;;;;;34.33;25.72;98706.85;105822;1276;108440;-67
2022/06/25 10:34:03;;;;;;;5.90;3.30;;;;;;;33.94;25.74;98699.73;105882;1276;97996;-76
2022/06/25 10:36:40;;;;;;;13.00;3.60;;;;;;;33.55;25.89;98700.00;105899;1276;97963;-71
2022/06/25 10:39:26;;;;;;;15.00;3.90;;;;;;;33.24;26.00;98705.02;105798;1276;111269;-72
2022/06/25 10:45:15;;;;;;;11.90;3.90;;;;;;;32.64;26.28;98700.80;105743;1277;107852;-71
2022/06/25 10:47:54;;;;;;;6.40;3.40;;;;;;;32.38;26.06;98697.27;105988;1276;97883;-67
2022/06/25 10:50:22;;;;;;;9.90;3.30;;;;;;;32.13;26.33;98698.33;106060;1276;97964;-65
2022/06/25 10:53:03;;;;;;;12.40;4.40;;;;;;;31.91;26.29;98690.60;105886;1277;112125;-69
2022/06/25 10:55:46;;;;;;;9.40;3.00;;;;;;;31.73;26.45;98701.75;105859;1276;97879;-69
2022/06/25 10:58:23;;;;;;;7.70;3.40;;;;;;;31.67;26.50;98701.18;106000;1276;108327;-68
2022/06/25 11:01:03;;;;;;;8.60;3.50;;;;;;;31.60;26.63;98695.23;105665;1276;96583;-71
2022/06/25 11:03:34;;;;;;;11.00;5.00;;;;;;;31.53;26.87;98696.97;106005;1276;97845;-69
2022/06/25 11:06:29;;;;;;;17.60;4.60;;;;;;;31.49;26.86;98692.05;105839;1276;112035;-70
2022/06/25 11:09:09;;;;;;;8.60;3.40;;;;;;;31.36;26.83;98688.17;105936;1276;95643;-71
2022/06/25 11:11:39;;;;;;;12.40;3.80;;;;;;;31.08;26.99;98687.33;105842;1276;108350;-67
2022/06/25 11:14:21;;;;;;;6.20;3.10;;;;;;;30.90;27.35;98687.88;105986;1276;97912;-69
2022/06/25 11:16:52;;;;;;;6.70;2.70;;;;;;;30.86;27.17;98692.55;105961;1276;96397;-69
2022/06/25 11:19:22;;;;;;;8.40;2.80;;;;;;;30.69;27.31;98683.14;105923;1276;110728;-67
2022/06/25 11:21:50;;;;;;;8.20;3.10;;;;;;;30.64;27.55;98684.13;105843;1276;98313;-68
2022/06/25 11:24:20;;;;;;;9.10;3.40;;;;;;;30.62;27.57;98684.55;105804;1276;108320;-68
2022/06/25 11:29:52;;;;;;;8.60;3.00;;;;;;;30.59;27.77;98676.14;105813;1276;97950;-69
2022/06/25 11:32:26;;;;;;;4.40;3.00;;;;;;;30.56;27.98;98678.83;105751;1276;111493;-68
2022/06/25 11:35:01;;;;;;;6.60;3.00;;;;;;;30.59;28.05;98675.05;105852;1276;98347;-67
2022/06/25 11:37:30;;;;;;;7.60;3.00;;;;;;;30.58;28.12;98676.51;105792;1276;107762;-68
2022/06/25 11:39:59;;;;;;;5.10;3.00;;;;;;;30.58;28.20;98676.73;105824;1276;97902;-69
2022/06/25 11:42:27;;;;;;;10.40;3.20;;;;;;;30.62;28.26;98678.33;105887;1276;97980;-69
2022/06/25 11:44:56;;;;;;;5.00;2.80;;;;;;;30.68;28.32;98674.73;105904;1276;112402;-70